Crawford, Oklahoma
Current Conditions -  °F | °C
As of 8:53 AM on Tuesday 21 Oct 2014 (Local Time) from KGAG Reporting Station
Clear Clear  
Wind Chill: 61°   Ceiling: Unl
Heat Index: 61°   Visibility: 10mi
Dew Point: 57°   Wind: 8mph
Humidity: 87%   Direction: 190°S
Pressure: 30.08"   Gusts: NA
Location:  35.83°N, 99.8°W
Report Text: KGAG 211353Z AUTO 19007KT 10SM CLR 16/14 A3008 RMK AO2 SLP171 T01610139
Loading
Personal Weather Stations






























Interactive Weather Map New forecast layout! Learn more

10-Day Weather Forecast

Advertisements
Track Severe Weather on mobile